createdAt,value
2017-11-01T06:55:41.302Z,36.83
2017-11-01T06:58:15.677Z,33.67
2017-11-01T07:00:44.678Z,34.50
2017-11-01T07:03:13.818Z,33.70
2017-11-01T07:05:42.347Z,33.57
2017-11-01T07:08:11.880Z,30.03
2017-11-01T07:10:41.171Z,28.53
2017-11-01T07:13:17.857Z,28.27
2017-11-01T07:15:46.345Z,25.70
2017-11-01T07:18:17.281Z,27.00
2017-11-01T07:20:47.082Z,29.37
2017-11-01T07:23:18.535Z,29.13
2017-11-01T07:25:48.576Z,28.57
2017-11-01T07:28:17.254Z,28.53
2017-11-01T07:30:48.033Z,28.13
2017-11-01T07:33:16.761Z,28.17
2017-11-01T07:35:46.368Z,27.37
2017-11-01T07:38:15.969Z,31.20
2017-11-01T07:40:45.255Z,29.30
2017-11-01T07:43:15.142Z,23.60
2017-11-01T07:45:43.681Z,27.20
2017-11-01T07:48:12.599Z,26.40
2017-11-01T07:50:41.066Z,28.17
2017-11-01T07:53:16.793Z,25.73
2017-11-01T07:55:46.253Z,24.43
2017-11-01T07:58:16.205Z,26.60
2017-11-01T08:00:45.920Z,24.43
2017-11-01T08:03:14.612Z,25.13
2017-11-01T08:05:43.965Z,23.57
2017-11-01T08:08:13.629Z,28.67
2017-11-01T08:10:42.229Z,32.07
2017-11-01T08:13:13.875Z,32.37
2017-11-01T08:15:42.685Z,31.77
2017-11-01T08:18:13.114Z,31.00
2017-11-01T08:20:41.578Z,31.40
2017-11-01T08:23:10.079Z,29.00
2017-11-01T08:25:38.597Z,31.27
2017-11-01T08:28:07.335Z,28.40
2017-11-01T08:30:35.864Z,30.20
2017-11-01T08:33:05.081Z,29.30
2017-11-01T08:35:33.525Z,29.53
2017-11-01T08:38:02.765Z,30.73
2017-11-01T08:40:32.621Z,30.33
2017-11-01T08:43:01.372Z,33.10
2017-11-01T08:45:29.822Z,30.00
2017-11-01T08:47:59.188Z,31.73
2017-11-01T08:50:27.719Z,30.90
2017-11-01T08:52:57.467Z,29.47
2017-11-01T08:55:28.436Z,28.83
2017-11-01T08:57:57.661Z,36.30
2017-11-01T09:00:26.423Z,32.97
2017-11-01T09:02:55.873Z,31.83
2017-11-01T09:05:24.340Z,29.43
2017-11-01T09:07:54.496Z,37.00
2017-11-01T09:10:24.729Z,32.40
2017-11-01T09:12:54.424Z,35.87
2017-11-01T09:15:23.049Z,35.47
2017-11-01T09:17:51.580Z,38.00
2017-11-01T09:20:21.784Z,36.93
2017-11-01T09:22:52.288Z,39.27
2017-11-01T09:25:20.730Z,35.30
2017-11-01T09:27:49.577Z,37.07
2017-11-01T09:30:18.025Z,40.63
2017-11-01T09:32:46.734Z,41.50
2017-11-01T09:35:15.587Z,38.70
2017-11-01T09:37:44.060Z,41.10
2017-11-01T09:40:12.538Z,43.07
2017-11-01T09:42:42.002Z,41.53
2017-11-01T09:45:10.548Z,43.03
2017-11-01T09:47:39.020Z,41.73
2017-11-01T09:50:07.755Z,38.50
2017-11-01T09:52:36.216Z,43.10
2017-11-01T09:55:05.445Z,45.60
2017-11-01T09:57:34.877Z,45.70
2017-11-01T10:00:04.412Z,44.13
2017-11-01T10:02:33.453Z,44.40
2017-11-01T10:05:05.968Z,49.23
